Terminal Aerodrome Forecast
Issued by NWS Cleveland, OH

Home | Current Version | Previous Version | Text Only | Print | Product List | Glossary On
Versions: 1 2 3 4 5 6 7 8 9 10 11 12 13 14 15 16 17 18 19 20 21 22 23 24 25 26 27 28 29 30 31 32 33 34 35
000
FTUS41 KCLE 290000 AAA
TAFCLE
TAF AMD
KCLE 290045Z 2901/3006 20008KT P6SM -SN SCT028 OVC045
      TEMPO 2901/2904 OVC028
     FM290400 18008KT P6SM SCT030 OVC080
      TEMPO 2904/2908 -SN OVC030
     FM291200 18012KT P6SM SCT025 OVC050
     FM291600 19014G20KT P6SM SCT025 OVC040
     FM292000 19014G22KT 6SM -DZ BR SCT012 OVC025
      TEMPO 2920/2924 4SM -RA BR OVC012
     FM300000 19012KT 5SM -RA BR OVC012=

USA.gov is the U.S. government's official web portal to all federal, state and local government web resources and services.